Forside
METAR-TAF:

METAR-TAF

Lufthavne :

Beijing Capital International Airport

Beijing, Kina

Breddekreds: 39-56N, længdekreds: 116-17E, højde: 55 m

Aktuelle vejr

Denne rapport blev lavet for 21 minutter siden, kl. 17:00 UTC
Vind 2 kt fra øst
Temperatur 24°C
Fugtighed 89%
Tryk 1002 hPa
Sigt: 5000 m
dis

METAR: ZBAA 251700Z 08001MPS 5000 BR NSC 24/22 Q1002 NOSIG

Tid: 01:21 (17:21 UTC)

Vejrudsigter

Denne rapport blev lavet for 8 timer og 1 minutter siden, kl. 09:20 UTC
Foreløbig gælder fra 25 på 12 UTC til 26 på 12 UTC
Vind 8 kt fra østnordøst
Sigt: 5000 m
dis

TAF: ZBAA 250920Z 2512/2612 06004MPS 5000 BR NSC TX34/2607Z TN22/2521Z

Vejrobservationer og prognoser fra mere end 4000 lufthavne (METAR og TAF).

De gule og røde prikker repræsenterer de meteorologiske stationer.

Flyt musen over at se navnet på stationen.

Så klik over at se vejr observationer og prognoser.

At skifte det kort: Klik på de grønne knapper med et sort kors for at zoome ind; på den grønne knap med en bindestreg for at zoome ud; eller på de grønne pile for tilstødende kort.


METAR-TAF: